Mountainburg, AR

9:09 AM CST on January 26, 2015 (GMT -0600)
Wren Loop | Change Station
CLOSE
Current Station
Personal Weather Station
Location: Ozark, AR
Elevation: 512 ft
Nearby Weather Stations

Elev 512 ft 35.50 °N, 93.94 °W | Updated 14 seconds ago

Clear
Clear
37.9 °F
Feels Like 38 °F
N
0.4
Wind Variable Wind from SW
Gusts 2.5 mph

Today
High -- | Low -- °F
--% Chance of Precip.
Yesterday
High -- | Low -- °F
Precip. -- in
7:20 AM 5:37 PM
Waxing Crescent, 44% visible
Pressure 30.17 in
Visibility 10.0 miles
Clouds Clear
Windchill 38 °F
Dew Point 32 °F
Humidity 77%
Rainfall 0.00 in
Snow Depth Not available.
UV 1.0 out of 12
Pollen 4.50 out of 12
Air Quality Not available.
Flu Activity Not available.
METAR KFSM 261453Z 24007KT 10SM CLR 03/00 A3016 RMK AO2 SLP215 T00280000 58001

More Conditions Fewer Conditions

Pressure 30.17 in
Visibility 10.0 miles
Clouds Clear
Windchill 38 °F
Dew Point 32 °F
Humidity 77%
Rainfall 0.00 in
Snow Depth Not available.
UV 1.0 out of 12
Pollen 4.50 out of 12
Air Quality Not available.
Flu Activity Not available.
METAR KFSM 261453Z 24007KT 10SM CLR 03/00 A3016 RMK AO2 SLP215 T00280000 58001

More Conditions Fewer Conditions

10-Day Weather Forecast

Almanac

Astronomy

Jan. 26, 2015 Rise Set
Actual Time
Civil Twilight
Nautical Twilight
Astronomical Twilight
Moon
Length of Visible Light
Length of Day
Tomorrow will be .
, % of the Moon is Illuminated

Today's Extremes

State Highs State Lows

Community

WunderPhotos

Upload Photos

1,790,232 photos uploaded!

WunderBlogs® & News

Nearby

Air Quality

  Air Quality AQ Index Pollutant
Not available.

Snow Depth

Station Depth Elevation

Earthquake Activity

City Distance Mag. Time & Date
Minimum magnitude displayed is 2.5.

Coastal Water Temperatures

Place Temperature

Nearby Weather Stations